Time;durP1;ratioP1;P1;durP2;ratioP2;P2;SDS_P1;SDS_P2;PMS_P1;PMS_P2;Temp;Humidity;BMP_temperature;BMP_pressure;BME280_temperature;BME280_humidity;BME280_pressure;Samples;Min_cycle;Max_cycle;Signal;HPM_P1;HPM_P2
2021/07/22 00:01:27;;;;;;;;;;;17.80;99.90;;;;;;5126222;28;19907;-83
2021/07/22 00:03:53;;;;;;;;;;;17.80;99.90;;;;;;5126105;28;20418;-84
2021/07/22 00:06:18;;;;;;;;;;;17.70;99.90;;;;;;5107598;28;20403;-85
2021/07/22 00:08:44;;;;;;;;;;;17.70;99.90;;;;;;5108288;28;19943;-85
2021/07/22 00:11:09;;;;;;;;;;;17.50;99.90;;;;;;5108348;28;19907;-82
2021/07/22 00:13:34;;;;;;;;;;;17.40;99.90;;;;;;5104539;28;19948;-85
2021/07/22 00:16:00;;;;;;;;;;;17.40;99.90;;;;;;5105190;28;19904;-85
2021/07/22 00:18:26;;;;;;;;;;;17.30;99.90;;;;;;5105032;28;19903;-82
2021/07/22 00:20:51;;;;;;;;;;;17.30;99.90;;;;;;5123219;28;19904;-80
2021/07/22 00:23:17;;;;;;;;;;;17.20;99.90;;;;;;5105262;28;20389;-84
2021/07/22 00:25:42;;;;;;;;;;;17.20;99.90;;;;;;5105086;28;19904;-82
2021/07/22 00:28:08;;;;;;;;;;;17.10;99.90;;;;;;5105029;28;19919;-82
2021/07/22 00:30:34;;;;;;;;;;;17.10;99.90;;;;;;5105108;28;19908;-82
2021/07/22 00:33:01;;;;;;;;;;;17.10;99.90;;;;;;5124329;28;19976;-83
2021/07/22 00:35:26;;;;;;;;;;;16.90;99.90;;;;;;5105365;28;19908;-85
2021/07/22 00:37:52;;;;;;;;;;;16.80;99.90;;;;;;5124167;28;19922;-82
2021/07/22 00:40:17;;;;;;;;;;;16.80;99.90;;;;;;5105938;28;19910;-85
2021/07/22 00:42:59;;;;;;;;;;;16.60;99.90;;;;;;5104664;28;19929;-84
2021/07/22 00:45:25;;;;;;;;;;;16.60;99.90;;;;;;5105050;28;19911;-84
2021/07/22 00:47:50;;;;;;;;;;;16.60;99.90;;;;;;5105184;28;19908;-82
2021/07/22 00:50:16;;;;;;;;;;;16.50;99.90;;;;;;5105764;28;19904;-82
2021/07/22 00:52:41;;;;;;;;;;;16.50;99.90;;;;;;5123204;28;19925;-85
2021/07/22 00:55:07;;;;;;;;;;;16.40;99.90;;;;;;5105882;28;20358;-83
2021/07/22 00:57:32;;;;;;;;;;;16.40;99.90;;;;;;5104746;28;20318;-80
2021/07/22 00:59:58;;;;;;;;;;;16.40;99.90;;;;;;5105043;28;19926;-83
2021/07/22 01:02:23;;;;;;;;;;;16.40;99.90;;;;;;5105105;28;19908;-83
2021/07/22 01:04:48;;;;;;;;;;;16.30;99.90;;;;;;5104473;28;19920;-82
2021/07/22 01:07:14;;;;;;;;;;;16.30;99.90;;;;;;5123149;28;20402;-84
2021/07/22 01:09:39;;;;;;;;;;;16.30;99.90;;;;;;5104560;28;20316;-85
2021/07/22 01:12:05;;;;;;;;;;;16.30;99.90;;;;;;5104362;28;19903;-85
2021/07/22 01:14:30;;;;;;;;;;;16.30;99.90;;;;;;5104497;28;19926;-83
2021/07/22 01:16:56;;;;;;;;;;;16.20;99.90;;;;;;5104337;28;19946;-82
2021/07/22 01:19:21;;;;;;;;;;;16.20;99.90;;;;;;5104455;28;19904;-83
2021/07/22 01:21:47;;;;;;;;;;;16.20;99.90;;;;;;5104635;28;20001;-83
2021/07/22 01:24:12;;;;;;;;;;;16.20;99.90;;;;;;5104224;28;19911;-85
2021/07/22 01:26:38;;;;;;;;;;;16.20;99.90;;;;;;5104401;28;20347;-81
2021/07/22 01:29:04;;;;;;;;;;;16.30;99.90;;;;;;5104862;28;19911;-83
2021/07/22 01:31:30;;;;;;;;;;;16.30;99.90;;;;;;5104287;28;19908;-84
2021/07/22 01:33:55;;;;;;;;;;;16.30;99.90;;;;;;5121851;28;20247;-81
2021/07/22 01:36:23;;;;;;;;;;;16.40;99.90;;;;;;5122151;28;19908;-84
2021/07/22 01:38:53;;;;;;;;;;;16.50;99.90;;;;;;5103789;28;19907;-83
2021/07/22 01:41:18;;;;;;;;;;;16.60;99.90;;;;;;5103466;28;19903;-85
2021/07/22 01:43:44;;;;;;;;;;;16.50;99.90;;;;;;5103883;28;20056;-84
2021/07/22 01:46:09;;;;;;;;;;;16.50;99.90;;;;;;5104321;28;19981;-82
2021/07/22 01:48:35;;;;;;;;;;;16.50;99.90;;;;;;5103966;28;19903;-82
2021/07/22 01:51:00;;;;;;;;;;;16.40;99.90;;;;;;5122618;28;19904;-85
2021/07/22 01:53:25;;;;;;;;;;;16.40;99.90;;;;;;5122572;28;20003;-83
2021/07/22 01:55:51;;;;;;;;;;;16.40;99.90;;;;;;5103598;28;19911;-84
2021/07/22 01:58:16;;;;;;;;;;;16.20;99.90;;;;;;5121848;28;20278;-83
2021/07/22 02:00:42;;;;;;;;;;;16.20;99.90;;;;;;5103562;28;19907;-82
2021/07/22 02:03:07;;;;;;;;;;;16.20;99.90;;;;;;5101656;28;19904;-82
2021/07/22 02:05:33;;;;;;;;;;;16.10;99.90;;;;;;5102535;28;19998;-79
2021/07/22 02:07:58;;;;;;;;;;;16.00;99.90;;;;;;5100930;28;19927;-82
2021/07/22 02:10:24;;;;;;;;;;;16.00;99.90;;;;;;5101359;28;19998;-82
2021/07/22 02:12:49;;;;;;;;;;;15.90;99.90;;;;;;5105149;28;19915;-82
2021/07/22 02:15:14;;;;;;;;;;;16.00;99.90;;;;;;5110957;28;19904;-82
2021/07/22 02:17:40;;;;;;;;;;;15.90;99.90;;;;;;5116833;28;20014;-82
2021/07/22 02:20:06;;;;;;;;;;;15.90;99.90;;;;;;5119110;28;19998;-82
2021/07/22 02:22:31;;;;;;;;;;;15.90;99.90;;;;;;5117734;28;19904;-83
2021/07/22 02:24:57;;;;;;;;;;;15.80;99.90;;;;;;5117805;28;19999;-80
2021/07/22 02:27:22;;;;;;;;;;;15.90;99.90;;;;;;5119570;28;19903;-84
2021/07/22 02:29:48;;;;;;;;;;;15.90;99.90;;;;;;5118608;28;20066;-83
2021/07/22 02:32:13;;;;;;;;;;;15.80;99.90;;;;;;5119255;28;20311;-82
2021/07/22 02:34:38;;;;;;;;;;;15.80;99.90;;;;;;5118971;28;19908;-82
2021/07/22 02:37:04;;;;;;;;;;;15.70;99.90;;;;;;5118387;28;19914;-84
2021/07/22 02:39:30;;;;;;;;;;;15.70;99.90;;;;;;5119256;28;19999;-83
2021/07/22 02:41:55;;;;;;;;;;;15.60;99.90;;;;;;5118434;28;20370;-82
2021/07/22 02:44:20;;;;;;;;;;;15.60;99.90;;;;;;5118683;28;20354;-83
2021/07/22 02:46:46;;;;;;;;;;;15.60;99.90;;;;;;5118329;28;19919;-82
2021/07/22 02:49:11;;;;;;;;;;;15.60;99.90;;;;;;5118130;28;19944;-83
2021/07/22 02:51:37;;;;;;;;;;;15.60;99.90;;;;;;5118154;28;19903;-85
2021/07/22 02:54:02;;;;;;;;;;;15.50;99.90;;;;;;5118461;28;20221;-83
2021/07/22 02:56:28;;;;;;;;;;;15.50;99.90;;;;;;5118850;28;19907;-82
2021/07/22 02:58:53;;;;;;;;;;;15.50;99.90;;;;;;5117748;28;19903;-80
2021/07/22 03:01:18;;;;;;;;;;;15.40;99.90;;;;;;5117050;28;20393;-84
2021/07/22 03:03:44;;;;;;;;;;;15.40;99.90;;;;;;5119099;28;20283;-83
2021/07/22 03:06:16;;;;;;;;;;;15.40;99.90;;;;;;5117734;28;19904;-81
2021/07/22 03:08:41;;;;;;;;;;;15.40;99.90;;;;;;5118124;28;19907;-82
2021/07/22 03:11:10;;;;;;;;;;;15.40;99.90;;;;;;5117418;28;19998;-83
2021/07/22 03:13:35;;;;;;;;;;;15.40;99.90;;;;;;5109695;28;19911;-85
2021/07/22 03:16:01;;;;;;;;;;;15.30;99.90;;;;;;5116578;28;19966;-82
2021/07/22 03:18:26;;;;;;;;;;;15.30;99.90;;;;;;5115237;28;19954;-82
2021/07/22 03:20:52;;;;;;;;;;;15.30;99.90;;;;;;5115973;28;19938;-83
2021/07/22 03:23:17;;;;;;;;;;;15.30;99.90;;;;;;5115902;28;19910;-83
2021/07/22 03:25:43;;;;;;;;;;;15.30;99.90;;;;;;5117607;28;19903;-83
2021/07/22 03:28:08;;;;;;;;;;;15.30;99.90;;;;;;5118031;28;19930;-82
2021/07/22 03:30:34;;;;;;;;;;;15.30;99.90;;;;;;5118059;28;19904;-84
2021/07/22 03:33:00;;;;;;;;;;;15.30;99.90;;;;;;5116608;28;20259;-82
2021/07/22 03:35:26;;;;;;;;;;;15.40;99.90;;;;;;5119069;28;19956;-83
2021/07/22 03:37:51;;;;;;;;;;;15.30;99.90;;;;;;5116450;28;19979;-83
2021/07/22 03:40:17;;;;;;;;;;;15.40;99.90;;;;;;5117033;28;19908;-82
2021/07/22 03:42:42;;;;;;;;;;;15.40;99.90;;;;;;5115858;28;19998;-83
2021/07/22 03:45:08;;;;;;;;;;;15.40;99.90;;;;;;5112199;28;19904;-81
2021/07/22 03:47:33;;;;;;;;;;;15.50;99.90;;;;;;5112184;28;20264;-80
2021/07/22 03:49:59;;;;;;;;;;;15.60;99.90;;;;;;5117906;28;19907;-81
2021/07/22 03:52:24;;;;;;;;;;;15.70;99.90;;;;;;5119149;28;19929;-83
2021/07/22 03:54:50;;;;;;;;;;;15.70;99.90;;;;;;5121117;28;20358;-82
2021/07/22 03:57:15;;;;;;;;;;;15.70;99.90;;;;;;5115704;28;20259;-80
2021/07/22 03:59:41;;;;;;;;;;;15.70;99.90;;;;;;5118565;28;19994;-83
2021/07/22 04:02:06;;;;;;;;;;;15.80;99.90;;;;;;5119353;28;19915;-80
2021/07/22 04:04:32;;;;;;;;;;;15.80;99.90;;;;;;5115592;28;19904;-81
2021/07/22 04:06:57;;;;;;;;;;;15.80;99.90;;;;;;5115049;28;19904;-80
2021/07/22 04:09:23;;;;;;;;;;;15.90;99.90;;;;;;5117019;28;20322;-83
2021/07/22 04:11:48;;;;;;;;;;;15.90;99.90;;;;;;5116670;28;19910;-81
2021/07/22 04:14:13;;;;;;;;;;;16.00;99.90;;;;;;5116182;28;20363;-80
2021/07/22 04:16:39;;;;;;;;;;;16.00;99.90;;;;;;5114773;28;19911;-80
2021/07/22 04:19:04;;;;;;;;;;;16.10;99.90;;;;;;5116673;28;19911;-82
2021/07/22 04:21:30;;;;;;;;;;;16.20;99.90;;;;;;5121188;27;19915;-82
2021/07/22 04:23:56;;;;;;;;;;;16.20;99.90;;;;;;5120613;28;20363;-82
2021/07/22 04:26:21;;;;;;;;;;;16.20;99.90;;;;;;5118275;28;20367;-82
2021/07/22 04:28:47;;;;;;;;;;;16.20;99.90;;;;;;5119275;28;19904;-84
2021/07/22 04:31:16;;;;;;;;;;;16.30;99.90;;;;;;5115403;28;19927;-80
2021/07/22 04:33:41;;;;;;;;;;;16.20;99.90;;;;;;5118988;28;19911;-83
2021/07/22 04:36:07;;;;;;;;;;;16.40;99.90;;;;;;5119523;28;19904;-82
2021/07/22 04:38:34;;;;;;;;;;;16.40;99.90;;;;;;5117745;28;19950;-80
2021/07/22 04:41:02;;;;;;;;;;;16.40;99.90;;;;;;5116414;28;20415;-82
2021/07/22 04:43:27;;;;;;;;;;;16.50;99.90;;;;;;5118196;28;20359;-82
2021/07/22 04:45:53;;;;;;;;;;;16.50;99.90;;;;;;5117980;28;19989;-83
2021/07/22 04:48:18;;;;;;;;;;;16.60;99.90;;;;;;5118793;28;19949;-80
2021/07/22 04:50:45;;;;;;;;;;;16.60;99.90;;;;;;5120289;28;19926;-81
2021/07/22 04:53:10;;;;;;;;;;;16.50;99.90;;;;;;5119223;28;19939;-82
2021/07/22 04:55:36;;;;;;;;;;;16.70;99.90;;;;;;5120476;28;19951;-82
2021/07/22 04:58:02;;;;;;;;;;;16.80;99.90;;;;;;5116991;28;19914;-83
2021/07/22 05:00:28;;;;;;;;;;;16.90;99.90;;;;;;5117461;28;20433;-82
2021/07/22 05:03:00;;;;;;;;;;;16.90;99.90;;;;;;5116873;28;19951;-80
2021/07/22 05:05:26;;;;;;;;;;;16.80;99.90;;;;;;5117187;28;19904;-80
2021/07/22 05:07:51;;;;;;;;;;;16.90;99.90;;;;;;5116652;28;19904;-81
2021/07/22 05:10:17;;;;;;;;;;;17.00;99.90;;;;;;5117175;28;19903;-81
2021/07/22 05:12:42;;;;;;;;;;;17.10;99.90;;;;;;5117341;28;19911;-82
2021/07/22 05:15:08;;;;;;;;;;;17.10;99.90;;;;;;5117270;28;19943;-82
2021/07/22 05:17:35;;;;;;;;;;;17.20;99.90;;;;;;5115920;28;19967;-80
2021/07/22 05:20:01;;;;;;;;;;;17.30;99.90;;;;;;5118306;28;19904;-83
2021/07/22 05:22:26;;;;;;;;;;;17.30;99.90;;;;;;5115144;28;19904;-81
2021/07/22 05:24:52;;;;;;;;;;;17.30;99.90;;;;;;5116613;28;19903;-81
2021/07/22 05:27:19;;;;;;;;;;;17.40;99.90;;;;;;5117531;28;19908;-83
2021/07/22 05:29:45;;;;;;;;;;;17.50;99.90;;;;;;5118269;28;19903;-85
2021/07/22 05:32:12;;;;;;;;;;;17.60;99.90;;;;;;5116629;28;19908;-85
2021/07/22 05:34:38;;;;;;;;;;;17.70;99.90;;;;;;5117532;28;19904;-80
2021/07/22 05:37:18;;;;;;;;;;;17.90;99.90;;;;;;5114429;28;19972;-83
2021/07/22 05:39:44;;;;;;;;;;;17.90;99.90;;;;;;5115273;28;19903;-81
2021/07/22 05:42:09;;;;;;;;;;;18.10;99.90;;;;;;5116621;28;19907;-81
2021/07/22 05:44:35;;;;;;;;;;;18.20;99.90;;;;;;5118879;28;19908;-81
2021/07/22 05:47:00;;;;;;;;;;;18.50;99.90;;;;;;5118997;28;19912;-82
2021/07/22 05:49:25;;;;;;;;;;;18.60;99.90;;;;;;5094144;28;19998;-81
2021/07/22 05:51:51;;;;;;;;;;;18.70;99.90;;;;;;5091551;28;19904;-83
2021/07/22 05:54:16;;;;;;;;;;;18.90;99.90;;;;;;5101644;28;19904;-83
2021/07/22 05:56:42;;;;;;;;;;;19.30;99.90;;;;;;5101005;28;19908;-81
2021/07/22 05:59:07;;;;;;;;;;;19.10;99.90;;;;;;5099168;28;20001;-81
2021/07/22 06:01:33;;;;;;;;;;;19.10;99.90;;;;;;5100413;28;19904;-81
2021/07/22 06:03:58;;;;;;;;;;;19.10;99.90;;;;;;5094352;28;19915;-82
2021/07/22 06:06:24;;;;;;;;;;;19.30;99.90;;;;;;5097298;28;19956;-83
2021/07/22 06:08:52;;;;;;;;;;;19.50;99.90;;;;;;5076555;28;19953;-81
2021/07/22 06:11:18;;;;;;;;;;;19.70;99.90;;;;;;5074064;28;19994;-81
2021/07/22 06:13:44;;;;;;;10.32;5.13;;;19.70;99.90;;;;;;5073993;28;20172;-81
2021/07/22 06:16:10;;;;;;;;;;;19.90;99.90;;;;;;5093412;28;20028;-81
2021/07/22 06:18:36;;;;;;;;;;;20.20;99.90;;;;;;5086128;28;19907;-83
2021/07/22 06:21:01;;;;;;;;;;;20.10;99.90;;;;;;5095991;28;20418;-82
2021/07/22 06:23:27;;;;;;;;;;;20.30;99.90;;;;;;5096762;28;19903;-81
2021/07/22 06:25:56;;;;;;;;;;;20.60;99.90;;;;;;5097739;28;20373;-83
2021/07/22 06:28:22;;;;;;;;;;;20.90;99.90;;;;;;5097575;28;19960;-83
2021/07/22 06:30:47;;;;;;;10.25;5.32;;;21.20;99.90;;;;;;5097880;28;19907;-80
2021/07/22 06:33:13;;;;;;;9.98;5.38;;;21.50;99.90;;;;;;5096819;28;20032;-80
2021/07/22 06:35:40;;;;;;;;;;;22.80;99.90;;;;;;5087993;28;19904;-83
2021/07/22 06:38:05;;;;;;;;;;;23.30;99.90;;;;;;5075488;28;19957;-82
2021/07/22 06:40:31;;;;;;;;;;;22.80;99.90;;;;;;5075688;28;19904;-81
2021/07/22 06:42:56;;;;;;;;;;;22.70;99.90;;;;;;5076038;28;19910;-82
2021/07/22 06:45:22;;;;;;;;;;;22.70;99.90;;;;;;5075539;28;19911;-81
2021/07/22 06:47:47;;;;;;;;;;;22.90;99.90;;;;;;5076198;28;19908;-82
2021/07/22 06:50:13;;;;;;;;;;;23.00;99.90;;;;;;5076239;28;19904;-83
2021/07/22 06:52:38;;;;;;;;;;;23.80;99.90;;;;;;5094020;28;19904;-82
2021/07/22 06:55:05;;;;;;;;;;;24.80;99.90;;;;;;5075745;28;20389;-80
2021/07/22 06:57:30;;;;;;;;;;;23.90;99.90;;;;;;5074756;28;19911;-82
2021/07/22 06:59:56;;;;;;;;;;;23.70;99.90;;;;;;5094933;28;20616;-82
2021/07/22 07:02:21;;;;;;;;;;;23.60;99.90;;;;;;5076787;28;19904;-83
2021/07/22 07:04:47;;;;;;;;;;;23.60;99.90;;;;;;5075020;28;20283;-83
2021/07/22 07:07:15;;;;;;;;;;;23.70;99.90;;;;;;5080259;28;19939;-84
2021/07/22 07:09:40;;;;;;;;;;;23.40;99.90;;;;;;5105030;28;19998;-82
2021/07/22 07:12:06;;;;;;;;;;;23.50;99.90;;;;;;5086869;28;19904;-84
2021/07/22 07:14:31;;;;;;;;;;;23.90;99.90;;;;;;5109208;28;19907;-86
2021/07/22 07:16:57;;;;;;;;;;;24.00;99.90;;;;;;5097137;28;19912;-83
2021/07/22 07:19:22;;;;;;;;;;;23.90;99.90;;;;;;5096969;28;19908;-85
2021/07/22 07:21:48;;;;;;;;;;;24.00;99.90;;;;;;5097733;28;19907;-81
2021/07/22 07:24:13;;;;;;;;;;;24.20;99.90;;;;;;5099717;28;20332;-83
2021/07/22 07:26:39;;;;;;;;;;;24.40;99.90;;;;;;5083716;28;20003;-83
2021/07/22 07:29:04;;;;;;;;;;;24.50;99.90;;;;;;5079756;28;19912;-84
2021/07/22 07:31:30;;;;;;;;;;;24.60;99.90;;;;;;5079692;28;19912;-83
2021/07/22 07:33:55;;;;;;;;;;;24.60;99.90;;;;;;5079912;28;20001;-84
2021/07/22 07:36:20;;;;;;;;;;;24.90;99.90;;;;;;5098195;28;19915;-83
2021/07/22 07:38:46;;;;;;;;;;;24.70;99.90;;;;;;5098239;28;20052;-82
2021/07/22 07:41:11;;;;;;;;;;;24.40;99.90;;;;;;5092350;28;19908;-82
2021/07/22 07:43:37;;;;;;;;;;;24.40;99.90;;;;;;5089845;28;19908;-81
2021/07/22 07:46:02;;;;;;;;;;;24.50;99.90;;;;;;5088153;28;19912;-82
2021/07/22 07:48:28;;;;;;;;;;;24.60;99.90;;;;;;5110225;28;19907;-82
2021/07/22 07:50:53;;;;;;;;;;;24.60;99.90;;;;;;5101522;28;20335;-81
2021/07/22 07:53:19;;;;;;;;;;;24.30;99.90;;;;;;5101706;28;20389;-81
2021/07/22 07:55:45;;;;;;;;;;;24.50;99.90;;;;;;5100911;28;19904;-81
2021/07/22 07:58:10;;;;;;;;;;;24.70;99.90;;;;;;5099901;28;19908;-83
2021/07/22 08:00:36;;;;;;;;;;;25.00;99.90;;;;;;5101346;28;20402;-83
2021/07/22 08:03:02;;;;;;;;;;;24.80;99.90;;;;;;5100438;28;19911;-83
2021/07/22 08:05:28;;;;;;;;;;;25.30;99.90;;;;;;5117616;28;19992;-84
2021/07/22 08:07:54;;;;;;;;;;;25.40;99.90;;;;;;5100461;28;19904;-83
2021/07/22 08:10:19;;;;;;;;;;;25.50;99.90;;;;;;5117627;28;20363;-82
2021/07/22 08:12:45;;;;;;;;;;;25.70;99.90;;;;;;5098899;28;20534;-83
2021/07/22 08:15:11;;;;;;;;;;;25.60;99.90;;;;;;5099900;28;19903;-84
2021/07/22 08:17:36;;;;;;;;;;;25.60;99.90;;;;;;5099527;28;19908;-82
2021/07/22 08:20:05;;;;;;;;;;;25.60;99.90;;;;;;5119463;28;19949;-82
2021/07/22 08:22:31;;;;;;;;;;;25.30;99.90;;;;;;5100132;28;19904;-81
2021/07/22 08:24:58;;;;;;;;;;;25.70;99.90;;;;;;5115034;28;19914;-81
2021/07/22 08:27:24;;;;;;;;;;;25.20;99.90;;;;;;5084999;28;20510;-80
2021/07/22 08:29:50;;;;;;;;;;;25.10;99.90;;;;;;5080419;28;19960;-81
2021/07/22 08:32:15;;;;;;;;;;;25.30;99.90;;;;;;5080776;28;20026;-83
2021/07/22 08:34:41;;;;;;;;;;;25.60;99.90;;;;;;5079122;28;19911;-81
2021/07/22 08:37:08;;;;;;;;;;;26.00;99.90;;;;;;5080752;28;19915;-83
2021/07/22 08:39:38;;;;;;;;;;;26.10;99.90;;;;;;5079077;28;20001;-83
2021/07/22 08:42:04;;;;;;;;;;;26.40;99.90;;;;;;5080339;28;19926;-82
2021/07/22 08:44:30;;;;;;;;;;;26.80;99.90;;;;;;5080576;28;19911;-81
2021/07/22 08:46:56;;;;;;;;;;;27.70;99.90;;;;;;5080235;28;19912;-82
2021/07/22 08:49:22;;;;;;;;;;;27.30;99.90;;;;;;5079524;28;20392;-80
2021/07/22 08:51:47;;;;;;;;;;;27.10;99.90;;;;;;5089397;28;19903;-82
2021/07/22 08:54:14;;;;;;;;;;;27.00;99.90;;;;;;5117920;28;19904;-82
2021/07/22 08:56:40;;;;;;;;;;;26.90;99.90;;;;;;5099645;28;19907;-81
2021/07/22 08:59:07;;;;;;;;;;;27.20;99.90;;;;;;5116200;28;20425;-81
2021/07/22 09:01:35;;;;;;;;;;;27.10;99.90;;;;;;5089576;28;19943;-82
2021/07/22 09:04:00;;;;;;;;;;;26.80;99.90;;;;;;5102336;28;19908;-84
2021/07/22 09:06:26;;;;;;;;;;;27.00;99.90;;;;;;5112951;28;19910;-83
2021/07/22 09:08:54;;;;;;;;;;;27.40;99.90;;;;;;5119289;28;19911;-81
2021/07/22 09:11:20;;;;;;;;;;;27.20;99.90;;;;;;5117484;28;20006;-83
2021/07/22 09:13:49;;;;;;;;;;;26.80;99.90;;;;;;5117040;28;19954;-82
2021/07/22 09:16:15;;;;;;;;;;;26.70;99.90;;;;;;5117773;28;20373;-82
2021/07/22 09:18:44;;;;;;;;;;;26.60;99.90;;;;;;5117826;28;20382;-84
2021/07/22 09:21:23;;;;;;;;;;;26.90;99.90;;;;;;5117721;28;19904;-82
2021/07/22 09:24:05;;;;;;;;;;;27.10;99.90;;;;;;5100000;28;19956;-85
2021/07/22 09:26:32;;;;;;;;;;;27.50;99.90;;;;;;5100641;28;19914;-84
2021/07/22 09:29:16;;;;;;;;;;;27.20;99.90;;;;;;5118172;28;19903;-82
2021/07/22 09:31:42;;;;;;;;;;;27.30;99.90;;;;;;5099328;28;19904;-84
2021/07/22 09:34:15;;;;;;;;;;;27.40;99.90;;;;;;5099602;28;19904;-82
2021/07/22 09:36:40;;;;;;;;;;;26.90;99.90;;;;;;5099394;28;19912;-81
2021/07/22 09:39:22;;;;;;;;;;;27.10;99.90;;;;;;5099982;28;19910;-84
2021/07/22 09:41:58;;;;;;;;;;;27.60;99.90;;;;;;5098953;28;20286;-82
2021/07/22 09:44:36;;;;;;;;;;;28.00;99.90;;;;;;5098649;28;19910;-83
2021/07/22 09:47:03;;;;;;;;;;;28.00;99.90;;;;;;5117388;28;20431;-85
2021/07/22 09:49:29;;;;;;;;;;;28.30;99.90;;;;;;5099776;28;19911;-83
2021/07/22 09:51:58;;;;;;;;;;;28.10;99.90;;;;;;5099404;28;19998;-83
2021/07/22 09:54:31;;;;;;;;;;;28.20;99.90;;;;;;5118027;28;19912;-83
2021/07/22 09:56:56;;;;;;;;;;;28.10;99.90;;;;;;5100120;28;19908;-82
2021/07/22 09:59:22;;;;;;;;;;;28.20;99.80;;;;;;5100011;28;19925;-82
2021/07/22 10:01:48;;;;;;;;;;;28.10;99.90;;;;;;5094452;28;20279;-81
2021/07/22 10:04:14;;;;;;;;;;;27.90;99.90;;;;;;5079230;28;19958;-81
2021/07/22 10:06:43;;;;;;;;;;;28.20;99.90;;;;;;5086773;28;19904;-80
2021/07/22 10:09:09;;;;;;;;;;;28.30;99.90;;;;;;5099127;28;19910;-81
2021/07/22 10:11:34;;;;;;;;;;;28.80;99.90;;;;;;5098842;28;19904;-80
2021/07/22 10:14:00;;;;;;;;;;;28.70;99.90;;;;;;5099177;28;19955;-82
2021/07/22 10:16:26;;;;;;;;;;;28.00;99.90;;;;;;5091062;28;19966;-84
2021/07/22 10:18:53;;;;;;;;;;;28.00;99.90;;;;;;5097164;28;19908;-82
2021/07/22 10:21:18;;;;;;;;;;;28.00;99.90;;;;;;5096775;28;19935;-84
2021/07/22 10:23:44;;;;;;;;;;;28.30;99.70;;;;;;5108305;28;19922;-84
2021/07/22 10:26:10;;;;;;;;;;;28.20;99.90;;;;;;5084279;28;19916;-82
2021/07/22 10:28:35;;;;;;;;;;;28.20;99.10;;;;;;5110050;28;19908;-82
2021/07/22 10:31:10;;;;;;;;;;;28.30;99.30;;;;;;5085086;28;19904;-83
2021/07/22 10:33:37;;;;;;;;;;;28.50;97.90;;;;;;5088090;28;19903;-84
2021/07/22 10:36:03;;;;;;;;;;;28.40;99.90;;;;;;5089879;28;20305;-84
2021/07/22 10:38:43;;;;;;;;;;;28.40;99.20;;;;;;5088022;28;19907;-84
2021/07/22 10:41:08;;;;;;;;;;;28.90;97.50;;;;;;5104378;28;19991;-86
2021/07/22 10:43:41;;;;;;;;;;;28.80;95.60;;;;;;5106497;28;20374;-84
2021/07/22 10:46:07;;;;;;;;;;;28.80;97.70;;;;;;5106292;28;20091;-84
2021/07/22 10:48:32;;;;;;;;;;;29.10;94.90;;;;;;5086192;28;20382;-83
2021/07/22 10:50:58;;;;;;;;;;;29.00;94.50;;;;;;5087892;28;20407;-84
2021/07/22 10:53:54;;;;;;;;;;;29.20;94.60;;;;;;5089150;28;19903;-83
2021/07/22 10:56:19;;;;;;;;;;;29.60;95.70;;;;;;5068240;28;19952;-83
2021/07/22 10:58:44;;;;;;;;;;;29.30;95.50;;;;;;5090701;28;19904;-84
2021/07/22 11:01:10;;;;;;;;;;;29.00;95.30;;;;;;5116524;28;19907;-84
2021/07/22 11:03:35;;;;;;;;;;;28.60;94.60;;;;;;5078037;28;19904;-84
2021/07/22 11:06:11;;;;;;;;;;;28.40;95.60;;;;;;5077964;28;19994;-86
2021/07/22 11:08:38;;;;;;;;;;;28.60;96.90;;;;;;5077167;28;19911;-84
2021/07/22 11:11:07;;;;;;;;;;;28.80;96.90;;;;;;5094677;28;19961;-84
2021/07/22 11:13:33;;;;;;;;;;;29.00;95.80;;;;;;5076096;28;19908;-85
2021/07/22 11:15:59;;;;;;;;;;;29.00;96.20;;;;;;5076032;28;19904;-84
2021/07/22 11:18:43;;;;;;;;;;;29.20;97.20;;;;;;5076334;28;19923;-84
2021/07/22 11:21:09;;;;;;;;;;;29.40;96.30;;;;;;5084034;28;19952;-83
2021/07/22 11:23:34;;;;;;;;;;;29.40;97.50;;;;;;5084728;28;19907;-83
2021/07/22 11:26:00;;;;;;;;;;;29.00;94.70;;;;;;5093044;28;20366;-85
2021/07/22 11:28:26;;;;;;;;;;;29.30;96.30;;;;;;5095878;28;19904;-87
2021/07/22 11:31:02;;;;;;;;;;;30.00;94.00;;;;;;5096663;28;19911;-86
2021/07/22 11:33:46;;;;;;;;;;;30.20;95.10;;;;;;5096141;28;19910;-84
2021/07/22 11:36:12;;;;;;;;;;;29.80;93.00;;;;;;5114780;28;19904;-87
2021/07/22 11:38:40;;;;;;;;;;;29.60;94.70;;;;;;5096170;28;19950;-82
2021/07/22 11:41:10;;;;;;;;;;;29.50;96.00;;;;;;5085100;28;19980;-86
2021/07/22 11:43:40;;;;;;;;;;;29.20;94.30;;;;;;5103756;28;19904;-84
2021/07/22 11:46:16;;;;;;;;;;;29.00;95.10;;;;;;5084681;28;20378;-82
2021/07/22 11:48:42;;;;;;;;;;;28.80;94.90;;;;;;5084466;28;19958;-85
2021/07/22 11:51:09;;;;;;;;;;;29.10;96.70;;;;;;5087805;28;19904;-86
2021/07/22 11:53:35;;;;;;;;;;;29.10;93.60;;;;;;5085594;28;20354;-86
2021/07/22 11:56:21;;;;;;;;;;;29.00;93.20;;;;;;5086472;28;19908;-85
2021/07/22 11:58:50;;;;;;;;;;;29.00;93.80;;;;;;5086499;28;19970;-85
2021/07/22 12:01:16;;;;;;;;;;;28.70;95.60;;;;;;5087155;28;19904;-83
2021/07/22 12:03:46;;;;;;;;;;;28.80;93.50;;;;;;5077126;28;19953;-84
2021/07/22 12:06:11;;;;;;;;;;;29.10;97.00;;;;;;5088947;28;19908;-83
2021/07/22 12:08:37;;;;;;;;;;;29.40;94.80;;;;;;5098043;28;19911;-85
2021/07/22 12:11:03;;;;;;;;;;;29.70;94.60;;;;;;5100592;28;19904;-85
2021/07/22 12:13:48;;;;;;;;;;;29.90;95.90;;;;;;5100543;28;20274;-83
2021/07/22 12:16:14;;;;;;;;;;;29.60;94.90;;;;;;5101536;28;20319;-83
2021/07/22 12:18:39;;;;;;;;;;;29.70;93.80;;;;;;5100826;28;20009;-84
2021/07/22 12:21:16;;;;;;;;;;;29.40;93.00;;;;;;5119622;28;19904;-83
2021/07/22 12:23:42;;;;;;;;;;;29.30;97.10;;;;;;5119409;28;19903;-84
2021/07/22 12:26:08;;;;;;;;;;;29.20;95.20;;;;;;5100667;28;19903;-83
2021/07/22 12:28:33;;;;;;;;;;;29.40;93.60;;;;;;5119665;28;19903;-82
2021/07/22 12:31:14;;;;;;;;;;;29.40;94.50;;;;;;5101036;28;19904;-81
2021/07/22 12:33:39;;;;;;;;;;;29.20;95.20;;;;;;5100612;28;19991;-84
2021/07/22 12:36:17;;;;;;;;;;;29.20;94.60;;;;;;5100841;28;19939;-81
2021/07/22 12:38:43;;;;;;;;;;;29.20;93.50;;;;;;5100877;28;20137;-84
2021/07/22 12:41:09;;;;;;;;;;;29.10;92.90;;;;;;5119623;28;19950;-82
2021/07/22 12:43:49;;;;;;;;;;;29.10;93.20;;;;;;5100872;28;20380;-81
2021/07/22 12:46:16;;;;;;;;;;;29.20;94.50;;;;;;5100405;28;19912;-83
2021/07/22 12:48:42;;;;;;;;;;;29.20;93.90;;;;;;5100708;28;19904;-81
2021/07/22 12:51:11;;;;;;;;;;;29.20;92.50;;;;;;5100223;28;19911;-81
2021/07/22 12:53:37;;;;;;;;;;;29.10;92.10;;;;;;5100354;28;19946;-81
2021/07/22 12:56:02;;;;;;;;;;;28.90;91.60;;;;;;5096883;28;20921;-82
2021/07/22 12:58:32;;;;;;;;;;;28.90;92.40;;;;;;5101058;28;20438;-82
2021/07/22 13:01:02;;;;;;;;;;;28.80;92.10;;;;;;5101468;28;19911;-83
2021/07/22 13:03:29;;;;;;;;;;;29.00;93.00;;;;;;5084138;28;19936;-83
2021/07/22 13:05:54;;;;;;;;;;;28.90;92.60;;;;;;5083101;28;20359;-84
2021/07/22 13:08:20;;;;;;;;;;;29.20;92.90;;;;;;5084100;28;20003;-81
2021/07/22 13:10:45;;;;;;;;;;;29.50;92.80;;;;;;5102119;28;19904;-83
2021/07/22 13:13:10;;;;;;;;;;;29.50;91.60;;;;;;5107931;28;20394;-82
2021/07/22 13:15:36;;;;;;;;;;;29.50;92.90;;;;;;5103633;28;19903;-81
2021/07/22 13:18:01;;;;;;;;;;;29.20;91.70;;;;;;5122545;28;19934;-83
2021/07/22 13:20:27;;;;;;;;;;;29.00;93.80;;;;;;5102832;28;19964;-84
2021/07/22 13:22:52;;;;;;;;;;;28.80;92.40;;;;;;5102449;28;19915;-83
2021/07/22 13:25:18;;;;;;;;;;;29.00;94.00;;;;;;5118864;28;19945;-82
2021/07/22 13:27:44;;;;;;;;;;;28.80;91.50;;;;;;5099434;28;20355;-80
2021/07/22 13:30:10;;;;;;;;;;;28.70;93.30;;;;;;5101311;28;20274;-81
2021/07/22 13:32:36;;;;;;;;;;;28.90;91.20;;;;;;5102571;28;19959;-83
2021/07/22 13:35:04;;;;;;;;;;;29.20;93.60;;;;;;5119667;28;19946;-82
2021/07/22 13:37:30;;;;;;;;;;;29.10;92.20;;;;;;5082671;28;19945;-80
2021/07/22 13:39:56;;;;;;;;;;;29.10;90.80;;;;;;5081160;28;19908;-84
2021/07/22 13:42:21;;;;;;;;;;;29.20;92.00;;;;;;5081524;28;19995;-84
2021/07/22 13:44:47;;;;;;;;;;;28.80;91.70;;;;;;5101209;28;19998;-82
2021/07/22 13:47:13;;;;;;;;;;;28.70;92.10;;;;;;5102983;28;19912;-82
2021/07/22 13:49:39;;;;;;;;;;;28.70;91.00;;;;;;5108856;28;20000;-83
2021/07/22 13:52:04;;;;;;;;;;;28.80;93.40;;;;;;5104732;28;19955;-82
2021/07/22 13:54:30;;;;;;;;;;;28.80;91.00;;;;;;5082201;28;19939;-81
2021/07/22 13:56:55;;;;;;;;;;;29.00;91.40;;;;;;5082264;28;19923;-81
2021/07/22 13:59:22;;;;;;;;;;;29.10;91.10;;;;;;5080886;28;19904;-82
2021/07/22 14:01:48;;;;;;;;;;;29.30;91.80;;;;;;5085410;28;19904;-82
2021/07/22 14:04:13;;;;;;;;;;;29.40;91.00;;;;;;5076394;28;20377;-81
2021/07/22 14:06:39;;;;;;;;;;;29.40;92.00;;;;;;5076426;28;20397;-83
2021/07/22 14:09:04;;;;;;;;;;;29.40;91.10;;;;;;5086182;28;19908;-84
2021/07/22 14:11:30;;;;;;;;;;;29.50;91.00;;;;;;5087654;28;20271;-84
2021/07/22 14:13:55;;;;;;;;;;;29.30;90.30;;;;;;5084714;28;19904;-85